Time;durP1;ratioP1;P1;durP2;ratioP2;P2;SDS_P1;SDS_P2;PMS_P1;PMS_P2;Temp;Humidity;BMP_temperature;BMP_pressure;BME280_temperature;BME280_humidity;BME280_pressure;Samples;Min_cycle;Max_cycle;Signal;HPM_P1;HPM_P2
2022/07/20 00:00:27;;;;;;;10.37;3.47;;;;;;;;;;5278686;28;20104;-81
2022/07/20 00:03:05;;;;;;;6.80;3.20;;;;;;;;;;5262367;28;20338;-82
2022/07/20 00:05:36;;;;;;;6.63;3.08;;;;;;;;;;5280755;28;20025;-82
2022/07/20 00:08:08;;;;;;;8.47;3.20;;;;;;;;;;5288477;28;21297;-82
2022/07/20 00:13:29;;;;;;;8.35;3.03;;;;;;;;;;5280754;28;20477;-81
2022/07/20 00:16:00;;;;;;;11.10;2.87;;;;;;;;;;5272931;28;20094;-81
2022/07/20 00:18:31;;;;;;;7.63;3.23;;;;;;;;;;5285258;28;20021;-81
2022/07/20 00:21:03;;;;;;;8.07;3.40;;;;;;;;;;5283301;28;20105;-82
2022/07/20 00:23:34;;;;;;;11.38;3.00;;;;;;;;;;5280711;28;20695;-81
2022/07/20 00:26:05;;;;;;;7.20;3.30;;;;;;;;;;5279044;28;20101;-81
2022/07/20 00:28:36;;;;;;;9.18;4.28;;;;;;;;;;5277350;28;20067;-82
2022/07/20 00:31:07;;;;;;;12.90;3.17;;;;;;;;;;5289046;28;20084;-82
2022/07/20 00:33:39;;;;;;;9.93;3.33;;;;;;;;;;5275975;28;20401;-82
2022/07/20 00:36:10;;;;;;;9.60;3.33;;;;;;;;;;5275637;28;20025;-82
2022/07/20 00:38:41;;;;;;;5.67;3.07;;;;;;;;;;5261780;28;20147;-82
2022/07/20 00:41:13;;;;;;;11.70;3.53;;;;;;;;;;5270438;28;20025;-82
2022/07/20 00:43:58;;;;;;;7.38;3.40;;;;;;;;;;5273641;28;20112;-82
2022/07/20 00:46:30;;;;;;;9.32;3.08;;;;;;;;;;5278733;28;20157;-81
2022/07/20 00:49:02;;;;;;;15.23;3.45;;;;;;;;;;5259083;28;20040;-82
2022/07/20 00:51:34;;;;;;;8.30;3.45;;;;;;;;;;5281464;28;20025;-81
2022/07/20 00:54:06;;;;;;;13.98;3.47;;;;;;;;;;5293466;28;20160;-82
2022/07/20 00:56:37;;;;;;;12.80;3.72;;;;;;;;;;5285882;28;20021;-83
2022/07/20 00:59:09;;;;;;;8.02;3.05;;;;;;;;;;5283129;28;20400;-83
2022/07/20 01:01:40;;;;;;;8.50;3.55;;;;;;;;;;5289713;28;20064;-83
2022/07/20 01:04:11;;;;;;;5.93;3.53;;;;;;;;;;5287956;28;20466;-81
2022/07/20 01:06:43;;;;;;;8.20;3.55;;;;;;;;;;5290231;28;20374;-83
2022/07/20 01:09:16;;;;;;;11.73;3.35;;;;;;;;;;5275334;28;20056;-83
2022/07/20 01:11:48;;;;;;;7.25;3.58;;;;;;;;;;5281259;28;20036;-83
2022/07/20 01:14:19;;;;;;;9.27;3.80;;;;;;;;;;5287032;28;20033;-83
2022/07/20 01:16:50;;;;;;;11.83;4.87;;;;;;;;;;5283908;28;20025;-83
2022/07/20 01:19:21;;;;;;;9.45;3.40;;;;;;;;;;5283615;28;20557;-81
2022/07/20 01:21:53;;;;;;;6.72;3.10;;;;;;;;;;5285623;28;20036;-82
2022/07/20 01:24:24;;;;;;;7.67;3.47;;;;;;;;;;5263198;28;20541;-82
2022/07/20 01:26:55;;;;;;;9.90;3.83;;;;;;;;;;5289910;28;20401;-82
2022/07/20 01:29:26;;;;;;;9.57;3.95;;;;;;;;;;5280275;28;20439;-82
2022/07/20 01:31:58;;;;;;;12.87;4.03;;;;;;;;;;5272270;28;20378;-82
2022/07/20 01:34:29;;;;;;;11.03;3.70;;;;;;;;;;5285477;28;20107;-82
2022/07/20 01:37:00;;;;;;;8.93;3.60;;;;;;;;;;5287564;28;20036;-82
2022/07/20 01:39:31;;;;;;;8.13;3.47;;;;;;;;;;5276944;28;20025;-82
2022/07/20 01:42:02;;;;;;;8.90;3.77;;;;;;;;;;5281627;28;20493;-82
2022/07/20 01:44:33;;;;;;;6.90;3.40;;;;;;;;;;5288749;28;20037;-82
2022/07/20 01:47:05;;;;;;;9.20;3.60;;;;;;;;;;5265496;28;20060;-82
2022/07/20 01:49:36;;;;;;;6.03;3.30;;;;;;;;;;5300489;28;20404;-81
2022/07/20 01:52:07;;;;;;;12.30;3.83;;;;;;;;;;5307923;28;20292;-81
2022/07/20 01:54:38;;;;;;;8.83;3.90;;;;;;;;;;5292398;28;20131;-82
2022/07/20 01:57:09;;;;;;;9.63;3.75;;;;;;;;;;5282105;28;20029;-82
2022/07/20 01:59:41;;;;;;;8.40;3.83;;;;;;;;;;5279626;28;20021;-82
2022/07/20 02:02:12;;;;;;;7.57;3.70;;;;;;;;;;5265114;28;20549;-82
2022/07/20 02:04:43;;;;;;;11.57;3.55;;;;;;;;;;5264878;28;20379;-82
2022/07/20 02:07:14;;;;;;;10.57;3.80;;;;;;;;;;5277972;28;20104;-82
2022/07/20 02:09:46;;;;;;;10.77;4.10;;;;;;;;;;5270117;28;20576;-82
2022/07/20 02:12:19;;;;;;;8.30;3.97;;;;;;;;;;5281490;28;20393;-82
2022/07/20 02:14:50;;;;;;;7.90;4.20;;;;;;;;;;5285663;28;20053;-82
2022/07/20 02:17:21;;;;;;;15.43;7.30;;;;;;;;;;5277423;28;20043;-82
2022/07/20 02:19:52;;;;;;;16.33;8.27;;;;;;;;;;5283732;28;20280;-82
2022/07/20 02:22:23;;;;;;;16.13;7.90;;;;;;;;;;5288924;28;20036;-81
2022/07/20 02:24:55;;;;;;;15.80;7.93;;;;;;;;;;5293293;28;20024;-82
2022/07/20 02:27:26;;;;;;;15.48;8.65;;;;;;;;;;5279673;28;20441;-81
2022/07/20 02:29:57;;;;;;;14.97;8.43;;;;;;;;;;5281286;28;20021;-81
2022/07/20 02:32:28;;;;;;;18.00;8.87;;;;;;;;;;5262413;28;20048;-81
2022/07/20 02:34:59;;;;;;;14.93;9.53;;;;;;;;;;5267647;28;20017;-81
2022/07/20 02:37:31;;;;;;;20.47;9.40;;;;;;;;;;5268270;28;20032;-81
2022/07/20 02:40:02;;;;;;;16.70;10.27;;;;;;;;;;5284223;28;20029;-81
2022/07/20 02:42:33;;;;;;;23.17;10.80;;;;;;;;;;5282603;28;20118;-82
2022/07/20 02:45:05;;;;;;;14.33;11.00;;;;;;;;;;5281874;28;20100;-82
2022/07/20 02:47:43;;;;;;;17.27;11.88;;;;;;;;;;5279592;28;20058;-82
2022/07/20 02:50:14;;;;;;;19.58;13.38;;;;;;;;;;5278168;28;20037;-81
2022/07/20 02:52:46;;;;;;;26.45;15.23;;;;;;;;;;5264293;28;20034;-81
2022/07/20 02:55:17;;;;;;;24.77;14.83;;;;;;;;;;5265056;28;20025;-81
2022/07/20 02:57:48;;;;;;;25.80;14.30;;;;;;;;;;5281916;28;20794;-81
2022/07/20 03:00:19;;;;;;;22.83;15.67;;;;;;;;;;5288526;28;20034;-80
2022/07/20 03:02:51;;;;;;;24.48;15.90;;;;;;;;;;5267592;28;20298;-81
2022/07/20 03:05:22;;;;;;;29.38;18.30;;;;;;;;;;5283222;28;20022;-81
2022/07/20 03:07:53;;;;;;;24.73;17.30;;;;;;;;;;5257663;28;20041;-81
2022/07/20 03:10:25;;;;;;;28.97;18.70;;;;;;;;;;5275618;28;20025;-81
2022/07/20 03:12:56;;;;;;;28.98;18.88;;;;;;;;;;5268731;28;20032;-81
2022/07/20 03:15:27;;;;;;;27.33;19.50;;;;;;;;;;5271301;28;20853;-80
2022/07/20 03:17:59;;;;;;;30.07;19.57;;;;;;;;;;5288416;28;20062;-80
2022/07/20 03:20:34;;;;;;;26.77;20.15;;;;;;;;;;5302462;28;20264;-79
2022/07/20 03:23:06;;;;;;;28.45;20.92;;;;;;;;;;5289207;28;20097;-80
2022/07/20 03:25:37;;;;;;;32.85;20.92;;;;;;;;;;5301879;28;20037;-80
2022/07/20 03:28:09;;;;;;;30.10;21.73;;;;;;;;;;5287705;28;20068;-79
2022/07/20 03:30:40;;;;;;;26.02;18.50;;;;;;;;;;5301707;28;21054;-80
2022/07/20 03:33:11;;;;;;;29.37;21.00;;;;;;;;;;5304455;28;20493;-81
2022/07/20 03:35:42;;;;;;;25.70;20.95;;;;;;;;;;5294618;28;20291;-81
2022/07/20 03:38:14;;;;;;;32.38;20.25;;;;;;;;;;5291986;28;20047;-81
2022/07/20 03:40:45;;;;;;;33.37;20.70;;;;;;;;;;5292390;28;20402;-80
2022/07/20 03:43:16;;;;;;;32.27;21.70;;;;;;;;;;5283035;28;20263;-80
2022/07/20 03:45:47;;;;;;;28.90;22.07;;;;;;;;;;5285098;28;21162;-81
2022/07/20 03:48:19;;;;;;;29.58;21.77;;;;;;;;;;5279787;28;20033;-81
2022/07/20 03:50:50;;;;;;;31.02;22.70;;;;;;;;;;5280583;28;20362;-81
2022/07/20 03:53:21;;;;;;;33.90;24.77;;;;;;;;;;5259483;28;20131;-80
2022/07/20 03:55:52;;;;;;;31.95;24.25;;;;;;;;;;5280911;28;20270;-81
2022/07/20 03:58:23;;;;;;;33.67;25.13;;;;;;;;;;5274334;28;20032;-80
2022/07/20 04:00:55;;;;;;;31.27;25.23;;;;;;;;;;5280790;28;20444;-81
2022/07/20 04:03:26;;;;;;;33.30;24.90;;;;;;;;;;5281875;28;20036;-81
2022/07/20 04:05:58;;;;;;;29.47;23.33;;;;;;;;;;5271634;28;20107;-82
2022/07/20 04:08:29;;;;;;;33.15;25.20;;;;;;;;;;5277028;28;20029;-81
2022/07/20 04:11:00;;;;;;;31.07;24.50;;;;;;;;;;5281999;28;20512;-81
2022/07/20 04:13:31;;;;;;;33.27;25.03;;;;;;;;;;5263954;28;20283;-81
2022/07/20 04:16:02;;;;;;;31.73;25.43;;;;;;;;;;5265258;28;20041;-81
2022/07/20 04:18:34;;;;;;;30.52;23.98;;;;;;;;;;5279069;28;20025;-82
2022/07/20 04:21:05;;;;;;;35.17;24.25;;;;;;;;;;5284967;28;20056;-81
2022/07/20 04:23:36;;;;;;;32.65;24.88;;;;;;;;;;5287592;28;20041;-82
2022/07/20 04:26:07;;;;;;;31.13;22.97;;;;;;;;;;5282956;28;20029;-81
2022/07/20 04:28:39;;;;;;;31.90;22.40;;;;;;;;;;5283820;28;20386;-81
2022/07/20 04:31:10;;;;;;;24.23;21.07;;;;;;;;;;5267822;28;20021;-81
2022/07/20 04:33:41;;;;;;;29.13;21.70;;;;;;;;;;5281113;28;20077;-81
2022/07/20 04:36:12;;;;;;;30.50;23.33;;;;;;;;;;5287783;28;21286;-81
2022/07/20 04:38:43;;;;;;;30.85;21.95;;;;;;;;;;5285757;28;20032;-81
2022/07/20 04:41:14;;;;;;;29.77;21.57;;;;;;;;;;5261831;28;20400;-81
2022/07/20 04:43:46;;;;;;;30.00;21.57;;;;;;;;;;5284812;28;20033;-80
2022/07/20 04:46:17;;;;;;;27.83;22.20;;;;;;;;;;5286682;28;20033;-81
2022/07/20 04:48:48;;;;;;;30.07;21.57;;;;;;;;;;5285050;28;20505;-80
2022/07/20 04:51:19;;;;;;;29.13;20.33;;;;;;;;;;5280551;28;20342;-80
2022/07/20 04:53:51;;;;;;;25.93;21.00;;;;;;;;;;5266497;28;20029;-84
2022/07/20 04:56:22;;;;;;;24.73;20.25;;;;;;;;;;5289833;28;20309;-84
2022/07/20 04:58:54;;;;;;;32.60;19.73;;;;;;;;;;5273854;28;20029;-84
2022/07/20 05:01:26;;;;;;;29.98;19.98;;;;;;;;;;5278493;28;20397;-84
2022/07/20 05:03:57;;;;;;;21.63;18.15;;;;;;;;;;5281624;28;20040;-85
2022/07/20 05:06:28;;;;;;;21.13;18.37;;;;;;;;;;5269517;28;20021;-85
2022/07/20 05:08:59;;;;;;;26.13;17.98;;;;;;;;;;5291507;28;20025;-84
2022/07/20 05:11:31;;;;;;;27.73;19.17;;;;;;;;;;5277457;28;20025;-85
2022/07/20 05:14:06;;;;;;;28.95;18.75;;;;;;;;;;5264740;28;20322;-84
2022/07/20 05:16:37;;;;;;;29.13;17.88;;;;;;;;;;5276630;28;20087;-85
2022/07/20 05:19:09;;;;;;;23.83;17.85;;;;;;;;;;5287542;28;20092;-86
2022/07/20 05:21:40;;;;;;;22.33;18.25;;;;;;;;;;5272529;28;20056;-85
2022/07/20 05:24:12;;;;;;;21.50;16.30;;;;;;;;;;5289127;28;20091;-86
2022/07/20 05:26:43;;;;;;;21.23;17.05;;;;;;;;;;5283122;28;20396;-85
2022/07/20 05:29:14;;;;;;;22.88;17.30;;;;;;;;;;5288765;28;20444;-85
2022/07/20 05:31:46;;;;;;;27.80;16.02;;;;;;;;;;5260116;28;20037;-85
2022/07/20 05:34:17;;;;;;;22.63;16.85;;;;;;;;;;5256478;28;20473;-85
2022/07/20 05:36:57;;;;;;;26.25;17.00;;;;;;;;;;5273694;28;20032;-85
2022/07/20 05:39:29;;;;;;;21.95;16.10;;;;;;;;;;5277696;28;20042;-85
2022/07/20 05:42:03;;;;;;;20.15;15.75;;;;;;;;;;5277523;28;20834;-84
2022/07/20 05:44:37;;;;;;;25.98;15.75;;;;;;;;;;5254041;28;20103;-85
2022/07/20 05:47:09;;;;;;;26.80;16.45;;;;;;;;;;5267430;28;20037;-84
2022/07/20 05:49:47;;;;;;;28.63;16.05;;;;;;;;;;5276847;28;20021;-84
2022/07/20 05:52:18;;;;;;;25.23;15.95;;;;;;;;;;5290520;28;20036;-84
2022/07/20 05:54:50;;;;;;;21.38;14.93;;;;;;;;;;5279214;28;20455;-85
2022/07/20 05:57:21;;;;;;;17.20;13.63;;;;;;;;;;5283646;28;20104;-85
2022/07/20 05:59:52;;;;;;;27.38;14.18;;;;;;;;;;5250583;28;20532;-84
2022/07/20 06:02:24;;;;;;;19.88;13.32;;;;;;;;;;5279369;28;20033;-85
2022/07/20 06:05:04;;;;;;;23.70;14.55;;;;;;;;;;5275597;28;20022;-84
2022/07/20 06:07:38;;;;;;;18.15;13.80;;;;;;;;;;5269361;28;20067;-84
2022/07/20 06:10:11;;;;;;;19.17;12.65;;;;;;;;;;5261648;28;20086;-84
2022/07/20 06:12:45;;;;;;;23.40;13.25;;;;;;;;;;5283942;28;20071;-85
2022/07/20 06:15:16;;;;;;;17.75;12.60;;;;;;;;;;5283762;28;20120;-85
2022/07/20 06:17:48;;;;;;;16.77;12.20;;;;;;;;;;5265891;28;20098;-85
2022/07/20 06:20:20;;;;;;;21.90;13.13;;;;;;;;;;5279183;28;20076;-84
2022/07/20 06:22:51;;;;;;;20.27;12.38;;;;;;;;;;5252086;28;20082;-85
2022/07/20 06:25:23;;;;;;;20.55;13.05;;;;;;;;;;5280064;28;20124;-84
2022/07/20 06:27:57;;;;;;;20.30;13.05;;;;;;;;;;5284459;28;20021;-84
2022/07/20 06:30:28;;;;;;;20.55;12.05;;;;;;;;;;5265347;28;20413;-85
2022/07/20 06:32:59;;;;;;;22.42;12.27;;;;;;;;;;5282748;28;20032;-85
2022/07/20 06:35:31;;;;;;;20.35;12.15;;;;;;;;;;5282364;28;20108;-85
2022/07/20 06:38:05;;;;;;;17.98;12.18;;;;;;;;;;5282699;28;20039;-85
2022/07/20 06:40:40;;;;;;;16.65;11.95;;;;;;;;;;5261786;28;20040;-85
2022/07/20 06:43:22;;;;;;;19.20;11.80;;;;;;;;;;5247628;28;20037;-85
2022/07/20 06:45:53;;;;;;;18.50;11.93;;;;;;;;;;5263559;28;20021;-84
2022/07/20 06:48:27;;;;;;;17.50;12.15;;;;;;;;;;5245565;28;20029;-85
2022/07/20 06:51:03;;;;;;;21.13;12.35;;;;;;;;;;5247783;28;20029;-85
2022/07/20 06:53:34;;;;;;;;;;;;;;;;;;5271297;28;20068;-84
2022/07/20 06:56:05;;;;;;;18.63;11.70;;;;;;;;;;5273345;28;20021;-85
2022/07/20 06:58:42;;;;;;;17.85;11.50;;;;;;;;;;5267739;28;20028;-85
2022/07/20 07:01:19;;;;;;;24.17;12.10;;;;;;;;;;5284415;28;20035;-84
2022/07/20 07:03:51;;;;;;;24.88;12.05;;;;;;;;;;5283087;28;19952;-83
2022/07/20 07:06:27;;;;;;;19.85;11.00;;;;;;;;;;5284146;28;20114;-84
2022/07/20 07:08:58;;;;;;;;;;;;;;;;;;5268828;28;20053;-85
2022/07/20 07:11:29;;;;;;;19.20;11.27;;;;;;;;;;5279231;28;19916;-85
2022/07/20 07:14:10;;;;;;;16.38;10.73;;;;;;;;;;5260022;28;20021;-84
2022/07/20 07:16:41;;;;;;;17.08;11.15;;;;;;;;;;5244682;28;20050;-85
2022/07/20 07:19:15;;;;;;;19.58;11.68;;;;;;;;;;5245170;28;20417;-85
2022/07/20 07:21:47;;;;;;;19.10;10.70;;;;;;;;;;5232310;28;20049;-84
2022/07/20 07:24:18;;;;;;;22.17;11.52;;;;;;;;;;5254702;28;20026;-84
2022/07/20 07:26:50;;;;;;;16.38;10.32;;;;;;;;;;5242587;28;20022;-85
2022/07/20 07:29:24;;;;;;;19.25;9.77;;;;;;;;;;5237385;28;20034;-83
2022/07/20 07:31:58;;;;;;;15.02;10.32;;;;;;;;;;5240626;28;20043;-84
2022/07/20 07:34:38;;;;;;;15.13;9.75;;;;;;;;;;5261508;28;20378;-84
2022/07/20 07:37:10;;;;;;;16.35;9.88;;;;;;;;;;5243183;28;20037;-84
2022/07/20 07:39:41;;;;;;;13.07;9.38;;;;;;;;;;5236380;28;20387;-85
2022/07/20 07:42:15;;;;;;;13.45;8.93;;;;;;;;;;5243734;28;20643;-85
2022/07/20 07:44:46;;;;;;;11.50;8.95;;;;;;;;;;5259998;28;20041;-85
2022/07/20 07:47:17;;;;;;;14.30;9.17;;;;;;;;;;5261443;28;20041;-84
2022/07/20 07:49:49;;;;;;;17.60;9.23;;;;;;;;;;5260803;28;20276;-84
2022/07/20 07:52:20;;;;;;;16.73;8.97;;;;;;;;;;5230493;28;20132;-84
2022/07/20 07:54:51;;;;;;;14.32;8.05;;;;;;;;;;5257328;28;20248;-84
2022/07/20 07:57:22;;;;;;;13.00;8.10;;;;;;;;;;5245541;28;20029;-84
2022/07/20 07:59:57;;;;;;;14.10;9.13;;;;;;;;;;5244457;28;20330;-84
2022/07/20 08:02:28;;;;;;;16.38;8.30;;;;;;;;;;5262209;28;20096;-84
2022/07/20 08:04:59;;;;;;;12.07;7.37;;;;;;;;;;5247986;28;20029;-84
2022/07/20 08:07:33;;;;;;;18.73;7.30;;;;;;;;;;5241983;28;20102;-84
2022/07/20 08:10:05;;;;;;;14.93;7.63;;;;;;;;;;5223249;28;20253;-84
2022/07/20 08:12:36;;;;;;;13.65;7.15;;;;;;;;;;5247382;28;20116;-84
2022/07/20 08:15:08;;;;;;;11.23;7.57;;;;;;;;;;5268679;28;20045;-84
2022/07/20 08:17:43;;;;;;;11.82;6.60;;;;;;;;;;5282405;28;20498;-83
2022/07/20 08:20:18;;;;;;;14.18;7.22;;;;;;;;;;5285727;28;20027;-83
2022/07/20 08:22:50;;;;;;;9.87;6.70;;;;;;;;;;5271825;28;20037;-83
2022/07/20 08:25:22;;;;;;;14.63;7.38;;;;;;;;;;5273655;28;20420;-84
2022/07/20 08:27:53;;;;;;;13.10;7.07;;;;;;;;;;5281763;28;20025;-83
2022/07/20 08:30:24;;;;;;;14.00;6.83;;;;;;;;;;5294547;28;20025;-83
2022/07/20 08:32:55;;;;;;;12.53;7.40;;;;;;;;;;5282264;28;20236;-83
2022/07/20 08:35:27;;;;;;;14.50;7.90;;;;;;;;;;5291802;28;20039;-83
2022/07/20 08:37:58;;;;;;;13.65;8.43;;;;;;;;;;5273597;28;20033;-83
2022/07/20 08:40:29;;;;;;;12.23;7.30;;;;;;;;;;5266833;28;20470;-83
2022/07/20 08:43:01;;;;;;;12.95;7.25;;;;;;;;;;5264670;28;20652;-84
2022/07/20 08:45:33;;;;;;;12.02;7.05;;;;;;;;;;5283533;28;20140;-84
2022/07/20 08:48:08;;;;;;;12.30;6.78;;;;;;;;;;5260844;28;20478;-83
2022/07/20 08:50:39;;;;;;;10.32;7.35;;;;;;;;;;5271585;28;20036;-83
2022/07/20 08:53:10;;;;;;;11.23;6.53;;;;;;;;;;5283822;28;20033;-83
2022/07/20 08:55:42;;;;;;;13.47;6.93;;;;;;;;;;5284267;28;20021;-82
2022/07/20 08:58:13;;;;;;;11.67;6.87;;;;;;;;;;5283848;28;20033;-83
2022/07/20 09:00:44;;;;;;;11.70;7.50;;;;;;;;;;5256694;28;20032;-83
2022/07/20 09:03:16;;;;;;;9.77;7.05;;;;;;;;;;5263058;28;20030;-84
2022/07/20 09:06:02;;;;;;;10.85;7.25;;;;;;;;;;5272186;28;20021;-83
2022/07/20 09:08:33;;;;;;;;;;;;;;;;;;5248932;28;20040;-84
2022/07/20 09:11:04;;;;;;;16.35;8.07;;;;;;;;;;5265881;28;20261;-84
2022/07/20 09:13:36;;;;;;;10.30;7.70;;;;;;;;;;5266280;28;20029;-83
2022/07/20 09:16:07;;;;;;;16.45;7.47;;;;;;;;;;5265402;28;20401;-84
2022/07/20 09:18:38;;;;;;;19.27;7.88;;;;;;;;;;5279186;28;20398;-84
2022/07/20 09:21:09;;;;;;;14.32;7.68;;;;;;;;;;5284406;28;20029;-83
2022/07/20 09:23:41;;;;;;;11.43;8.17;;;;;;;;;;5280871;28;20397;-83
2022/07/20 09:26:12;;;;;;;15.27;7.77;;;;;;;;;;5286882;28;20114;-83
2022/07/20 09:28:48;;;;;;;12.33;7.90;;;;;;;;;;5286512;28;20025;-83
2022/07/20 09:31:28;;;;;;;17.65;8.23;;;;;;;;;;5286275;28;20268;-84
2022/07/20 09:34:03;;;;;;;15.48;8.30;;;;;;;;;;5257434;28;20402;-84
2022/07/20 09:36:36;;;;;;;14.13;7.97;;;;;;;;;;5264839;28;20021;-84
2022/07/20 09:39:15;;;;;;;13.13;7.63;;;;;;;;;;5272430;28;20036;-84
2022/07/20 09:41:53;;;;;;;12.45;7.72;;;;;;;;;;5267172;28;20116;-84
2022/07/20 09:44:30;;;;;;;11.63;8.10;;;;;;;;;;5285221;28;20017;-84
2022/07/20 09:47:10;;;;;;;12.38;7.25;;;;;;;;;;5264981;28;20487;-84
2022/07/20 09:49:41;;;;;;;10.05;6.32;;;;;;;;;;5279612;28;20621;-84
2022/07/20 09:52:13;;;;;;;11.37;6.13;;;;;;;;;;5265978;28;20028;-84
2022/07/20 09:54:44;;;;;;;12.60;7.28;;;;;;;;;;5245839;28;20022;-84
2022/07/20 09:57:17;;;;;;;10.47;7.17;;;;;;;;;;5284431;28;20392;-84
2022/07/20 09:59:51;;;;;;;9.27;5.95;;;;;;;;;;5265015;28;20040;-84
2022/07/20 10:02:23;;;;;;;14.15;6.57;;;;;;;;;;5246969;28;20036;-85
2022/07/20 10:04:55;;;;;;;14.75;6.00;;;;;;;;;;5251167;28;20120;-82
2022/07/20 10:07:26;;;;;;;11.65;5.82;;;;;;;;;;5266722;28;20115;-83
2022/07/20 10:09:58;;;;;;;14.00;5.70;;;;;;;;;;5284818;28;20108;-82
2022/07/20 10:12:29;;;;;;;11.43;6.05;;;;;;;;;;5271061;28;20524;-83
2022/07/20 10:15:01;;;;;;;12.40;5.97;;;;;;;;;;5263399;28;20072;-83
2022/07/20 10:17:33;;;;;;;8.80;5.90;;;;;;;;;;5266841;28;20039;-83
2022/07/20 10:20:07;;;;;;;10.07;5.65;;;;;;;;;;5279231;28;20035;-83
2022/07/20 10:22:38;;;;;;;10.65;6.97;;;;;;;;;;5275267;28;20112;-84
2022/07/20 10:25:14;;;;;;;10.57;6.03;;;;;;;;;;5281158;28;20155;-83
2022/07/20 10:27:46;;;;;;;11.95;6.15;;;;;;;;;;5271116;28;20033;-83
2022/07/20 10:30:18;;;;;;;11.70;6.80;;;;;;;;;;5285004;28;20078;-83
2022/07/20 10:32:56;;;;;;;9.82;5.45;;;;;;;;;;5285131;28;20481;-83
2022/07/20 10:35:28;;;;;;;8.20;5.63;;;;;;;;;;5269577;28;20026;-83
2022/07/20 10:38:00;;;;;;;9.02;5.10;;;;;;;;;;5269122;28;20087;-82
2022/07/20 10:40:31;;;;;;;7.97;5.30;;;;;;;;;;5285828;28;20029;-83
2022/07/20 10:43:13;;;;;;;10.60;5.57;;;;;;;;;;5276360;28;20095;-83
2022/07/20 10:45:46;;;;;;;9.10;5.60;;;;;;;;;;5268470;28;20029;-84
2022/07/20 10:48:18;;;;;;;6.53;5.07;;;;;;;;;;5266380;28;20041;-84
2022/07/20 10:50:53;;;;;;;12.85;5.20;;;;;;;;;;5269745;28;20025;-82
2022/07/20 10:53:26;;;;;;;8.90;4.93;;;;;;;;;;5277941;28;20077;-84
2022/07/20 10:55:58;;;;;;;8.35;5.05;;;;;;;;;;5265564;28;20021;-81
2022/07/20 10:58:31;;;;;;;10.93;4.95;;;;;;;;;;5283871;28;20393;-82
2022/07/20 11:01:07;;;;;;;10.40;4.53;;;;;;;;;;5279694;28;20109;-82
2022/07/20 11:03:39;;;;;;;10.00;5.05;;;;;;;;;;5258363;28;20049;-82
2022/07/20 11:06:15;;;;;;;9.38;4.88;;;;;;;;;;5283164;28;20108;-83
2022/07/20 11:09:01;;;;;;;9.00;4.85;;;;;;;;;;5283154;28;20183;-83
2022/07/20 11:11:34;;;;;;;8.63;4.80;;;;;;;;;;5271958;28;20115;-83
2022/07/20 11:14:06;;;;;;;6.55;4.30;;;;;;;;;;5264784;28;20025;-83
2022/07/20 11:16:37;;;;;;;6.35;4.22;;;;;;;;;;5282711;28;20032;-83
2022/07/20 11:19:09;;;;;;;9.55;4.43;;;;;;;;;;5278662;28;20400;-83
2022/07/20 11:21:44;;;;;;;8.77;4.70;;;;;;;;;;5264294;28;20054;-83
2022/07/20 11:24:23;;;;;;;9.70;4.82;;;;;;;;;;5268557;28;20096;-83
2022/07/20 11:26:55;;;;;;;8.68;4.35;;;;;;;;;;5284031;28;20021;-82
2022/07/20 11:29:27;;;;;;;14.48;5.07;;;;;;;;;;5280936;28;20079;-83
2022/07/20 11:32:08;;;;;;;16.80;4.82;;;;;;;;;;5282365;28;20144;-83
2022/07/20 11:34:57;;;;;;;13.82;5.13;;;;;;;;;;5273698;28;20040;-82
2022/07/20 11:37:28;;;;;;;7.88;3.60;;;;;;;;;;5271900;28;20033;-83
2022/07/20 11:40:00;;;;;;;6.87;3.27;;;;;;;;;;5281688;28;20033;-83
2022/07/20 11:42:31;;;;;;;6.30;3.38;;;;;;;;;;5281627;28;20021;-83
2022/07/20 11:45:02;;;;;;;10.10;4.50;;;;;;;;;;5283030;28;20028;-84
2022/07/20 11:47:34;;;;;;;8.00;4.07;;;;;;;;;;5281287;28;20032;-83
2022/07/20 11:50:08;;;;;;;6.00;3.47;;;;;;;;;;5273210;28;20064;-82
2022/07/20 11:52:40;;;;;;;10.27;3.40;;;;;;;;;;5264622;28;20056;-82
2022/07/20 11:55:11;;;;;;;8.30;3.13;;;;;;;;;;5270655;28;20089;-82
2022/07/20 11:57:43;;;;;;;6.50;2.73;;;;;;;;;;5263581;28;20049;-83
2022/07/20 12:00:14;;;;;;;18.37;4.00;;;;;;;;;;5262199;28;20458;-83
2022/07/20 12:02:46;;;;;;;12.90;3.15;;;;;;;;;;5262407;28;20637;-83
2022/07/20 12:05:17;;;;;;;4.70;2.90;;;;;;;;;;5273809;28;20013;-83
2022/07/20 12:10:40;;;;;;;5.03;3.40;;;;;;;;;;5282950;28;20029;-82
2022/07/20 12:13:13;;;;;;;15.85;3.88;;;;;;;;;;5271933;28;20080;-83
2022/07/20 12:15:54;;;;;;;4.70;3.20;;;;;;;;;;5261676;28;20045;-83
2022/07/20 12:18:32;;;;;;;6.60;3.33;;;;;;;;;;5260641;28;20080;-83
2022/07/20 12:21:04;;;;;;;5.47;3.00;;;;;;;;;;5262138;28;20438;-83
2022/07/20 12:23:36;;;;;;;5.05;3.00;;;;;;;;;;5274871;28;20494;-83
2022/07/20 12:26:19;;;;;;;5.78;3.65;;;;;;;;;;5275928;28;20107;-83
2022/07/20 12:28:51;;;;;;;4.45;2.95;;;;;;;;;;5261474;28;20039;-83
2022/07/20 12:31:24;;;;;;;6.30;3.50;;;;;;;;;;5250743;28;20466;-83
2022/07/20 12:34:06;;;;;;;4.53;3.35;;;;;;;;;;5282278;28;20461;-83
2022/07/20 12:36:40;;;;;;;6.65;3.35;;;;;;;;;;5256131;28;20049;-83
2022/07/20 12:39:12;;;;;;;4.97;3.70;;;;;;;;;;5282113;28;20382;-83
2022/07/20 12:41:43;;;;;;;5.63;3.58;;;;;;;;;;5273667;28;20025;-83
2022/07/20 12:44:28;;;;;;;6.97;3.60;;;;;;;;;;5283101;28;20036;-84
2022/07/20 12:47:00;;;;;;;8.60;4.28;;;;;;;;;;5273017;28;20303;-83
2022/07/20 12:49:31;;;;;;;6.80;3.87;;;;;;;;;;5268086;28;20110;-83
2022/07/20 12:52:02;;;;;;;7.70;4.15;;;;;;;;;;5286218;28;20111;-83
2022/07/20 12:54:34;;;;;;;9.15;4.00;;;;;;;;;;5286282;28;20017;-83
2022/07/20 12:57:05;;;;;;;4.32;3.72;;;;;;;;;;5265272;28;20033;-82
2022/07/20 12:59:36;;;;;;;4.20;3.47;;;;;;;;;;5266532;28;20037;-82
2022/07/20 13:02:07;;;;;;;9.50;4.70;;;;;;;;;;5275616;28;20072;-82
2022/07/20 13:04:39;;;;;;;8.43;3.70;;;;;;;;;;5271469;28;20025;-82
2022/07/20 13:07:12;;;;;;;6.32;3.67;;;;;;;;;;5285561;28;20373;-83
2022/07/20 13:09:43;;;;;;;7.22;3.45;;;;;;;;;;5284887;28;20029;-82
2022/07/20 13:12:14;;;;;;;5.27;3.70;;;;;;;;;;5281085;28;20032;-83
2022/07/20 13:14:45;;;;;;;4.20;3.40;;;;;;;;;;5265043;28;20128;-82
2022/07/20 13:17:17;;;;;;;6.03;3.67;;;;;;;;;;5265209;28;20167;-82
2022/07/20 13:19:48;;;;;;;6.83;4.30;;;;;;;;;;5265410;28;20178;-82
2022/07/20 13:22:19;;;;;;;6.80;3.60;;;;;;;;;;5265388;28;20315;-83
2022/07/20 13:24:50;;;;;;;6.13;3.80;;;;;;;;;;5270547;28;20283;-84
2022/07/20 13:27:22;;;;;;;5.23;4.07;;;;;;;;;;5280818;28;20033;-83
2022/07/20 13:29:53;;;;;;;5.37;3.97;;;;;;;;;;5276229;28;20021;-82
2022/07/20 13:32:24;;;;;;;6.13;4.47;;;;;;;;;;5285843;28;20041;-83
2022/07/20 13:34:59;;;;;;;5.60;3.95;;;;;;;;;;5261026;28;20025;-83
2022/07/20 13:37:30;;;;;;;9.35;4.68;;;;;;;;;;5264213;28;20037;-82
2022/07/20 13:40:01;;;;;;;5.85;4.80;;;;;;;;;;5277572;28;20025;-83
2022/07/20 13:42:32;;;;;;;7.32;4.63;;;;;;;;;;5285636;28;20429;-83
2022/07/20 13:45:04;;;;;;;8.17;4.77;;;;;;;;;;5275945;28;20359;-83
2022/07/20 13:47:36;;;;;;;6.82;4.57;;;;;;;;;;5276563;28;20036;-83
2022/07/20 13:50:10;;;;;;;7.88;5.18;;;;;;;;;;5259282;28;20021;-84
2022/07/20 13:52:41;;;;;;;8.48;5.20;;;;;;;;;;5276382;28;20033;-84
2022/07/20 13:55:12;;;;;;;8.30;4.90;;;;;;;;;;5278364;28;20092;-83
2022/07/20 13:57:43;;;;;;;9.63;5.80;;;;;;;;;;5260431;28;20530;-83
2022/07/20 14:00:15;;;;;;;13.17;5.30;;;;;;;;;;5270436;28;20318;-83
2022/07/20 14:02:46;;;;;;;7.75;5.60;;;;;;;;;;5273215;28;20282;-83
2022/07/20 14:05:17;;;;;;;8.20;5.93;;;;;;;;;;5279132;28;20017;-83
2022/07/20 14:07:51;;;;;;;9.37;5.70;;;;;;;;;;5270388;28;20034;-83
2022/07/20 14:10:22;;;;;;;11.20;5.63;;;;;;;;;;5266752;28;20017;-83
2022/07/20 14:12:53;;;;;;;9.50;5.60;;;;;;;;;;5274346;28;20036;-83
2022/07/20 14:15:24;;;;;;;6.90;5.57;;;;;;;;;;5271237;28;20490;-83
2022/07/20 14:17:56;;;;;;;8.90;6.07;;;;;;;;;;5254602;28;20330;-83
2022/07/20 14:20:27;;;;;;;8.27;5.38;;;;;;;;;;5305358;28;20024;-83
2022/07/20 14:22:58;;;;;;;7.83;6.40;;;;;;;;;;5297339;28;20389;-83
2022/07/20 14:25:30;;;;;;;7.70;5.87;;;;;;;;;;5284590;28;20108;-83
2022/07/20 14:28:01;;;;;;;9.38;6.50;;;;;;;;;;5295955;28;20041;-83
2022/07/20 14:30:32;;;;;;;8.27;6.10;;;;;;;;;;5288056;28;20071;-83
2022/07/20 14:33:04;;;;;;;10.52;6.60;;;;;;;;;;5274497;28;20259;-82
2022/07/20 14:35:35;;;;;;;9.70;6.67;;;;;;;;;;5284106;28;20021;-83
2022/07/20 14:38:06;;;;;;;9.65;6.50;;;;;;;;;;5297684;28;20036;-83
2022/07/20 14:40:37;;;;;;;8.27;7.10;;;;;;;;;;5303085;28;20047;-83
2022/07/20 14:43:09;;;;;;;9.97;7.00;;;;;;;;;;5282394;28;20037;-83
2022/07/20 14:45:40;;;;;;;9.43;6.23;;;;;;;;;;5291725;28;20059;-83
2022/07/20 14:48:11;;;;;;;10.97;6.17;;;;;;;;;;5280497;28;20032;-83
2022/07/20 14:50:42;;;;;;;8.67;6.63;;;;;;;;;;5273844;28;20021;-83
2022/07/20 14:53:14;;;;;;;9.35;6.32;;;;;;;;;;5259017;28;20026;-83
2022/07/20 14:55:46;;;;;;;9.95;7.07;;;;;;;;;;5273357;28;20017;-83
2022/07/20 14:58:18;;;;;;;9.55;6.65;;;;;;;;;;5282689;28;20017;-83
2022/07/20 15:00:49;;;;;;;8.80;6.10;;;;;;;;;;5265451;28;20048;-83
2022/07/20 15:03:20;;;;;;;7.17;6.13;;;;;;;;;;5283832;28;20527;-83
2022/07/20 15:05:56;;;;;;;11.37;6.67;;;;;;;;;;5268726;28;20060;-83